Time;durP1;ratioP1;P1;durP2;ratioP2;P2;SDS_P1;SDS_P2;PMS_P1;PMS_P2;Temp;Humidity;BMP_temperature;BMP_pressure;BME280_temperature;BME280_humidity;BME280_pressure;Samples;Min_cycle;Max_cycle;Signal;HPM_P1;HPM_P2
2021/03/22 00:00:20;;;;;;;;;;;19.00;99.90;;;;;;4972730;28;19914;-83
2021/03/22 00:02:47;;;;;;;;;;;19.00;99.90;;;;;;4974411;28;19977;-83
2021/03/22 00:05:14;;;;;;;;;;;18.90;99.90;;;;;;4974409;28;19938;-84
2021/03/22 00:07:40;;;;;;;;;;;18.90;99.90;;;;;;4973796;28;19965;-83
2021/03/22 00:10:08;;;;;;;;;;;18.90;99.90;;;;;;4974349;28;19914;-83
2021/03/22 00:12:35;;;;;;;;;;;18.90;99.90;;;;;;4974811;28;19911;-83
2021/03/22 00:15:02;;;;;;;;;;;18.90;99.90;;;;;;4963126;28;19914;-83
2021/03/22 00:17:29;;;;;;;;;;;18.90;99.90;;;;;;4974339;28;19939;-83
2021/03/22 00:19:55;;;;;;;;;;;19.00;99.90;;;;;;4974855;28;19914;-83
2021/03/22 00:22:22;;;;;;;;;;;19.00;99.90;;;;;;4970382;28;20819;-83
2021/03/22 00:24:49;;;;;;;;;;;19.00;99.90;;;;;;4968226;28;19964;-84
2021/03/22 00:27:16;;;;;;;;;;;18.90;99.90;;;;;;4966814;28;20637;-83
2021/03/22 00:29:42;;;;;;;;;;;18.80;99.90;;;;;;4969084;28;19964;-84
2021/03/22 00:32:09;;;;;;;;;;;18.70;99.90;;;;;;4967936;28;20412;-83
2021/03/22 00:34:36;;;;;;;;;;;18.60;99.90;;;;;;4964746;28;20605;-83
2021/03/22 00:37:03;;;;;;;;;;;18.60;99.90;;;;;;4967969;28;20408;-82
2021/03/22 00:39:29;;;;;;;;;;;18.50;99.90;;;;;;4968094;28;19910;-83
2021/03/22 00:41:56;;;;;;;;;;;18.50;99.90;;;;;;4968053;28;20404;-83
2021/03/22 00:44:23;;;;;;;;;;;18.60;99.90;;;;;;4971278;28;20253;-81
2021/03/22 00:46:50;;;;;;;;;;;18.60;99.90;;;;;;4969435;28;20382;-82
2021/03/22 00:49:17;;;;;;;;;;;18.70;99.90;;;;;;4968756;28;20284;-83
2021/03/22 00:51:44;;;;;;;;;;;18.80;99.90;;;;;;4971541;28;20545;-83
2021/03/22 00:54:10;;;;;;;;;;;18.80;99.90;;;;;;4971969;28;20272;-83
2021/03/22 00:56:37;;;;;;;;;;;18.80;99.90;;;;;;4975109;28;20372;-82
2021/03/22 00:59:04;;;;;;;;;;;18.80;99.90;;;;;;4970147;28;19914;-84
2021/03/22 01:01:31;;;;;;;;;;;18.90;99.90;;;;;;4969386;28;19914;-82
2021/03/22 01:03:58;;;;;;;;;;;18.90;99.90;;;;;;4952263;28;20339;-83
2021/03/22 01:06:24;;;;;;;;;;;18.80;99.90;;;;;;4968632;28;19969;-83
2021/03/22 01:08:51;;;;;;;;;;;18.80;99.90;;;;;;4969625;28;19922;-83
2021/03/22 01:11:20;;;;;;;;;;;18.90;99.90;;;;;;4956719;28;19950;-83
2021/03/22 01:13:49;;;;;;;;;;;18.90;99.90;;;;;;4970635;28;19914;-82
2021/03/22 01:16:17;;;;;;;;;;;18.90;99.90;;;;;;4968235;28;20319;-82
2021/03/22 01:18:46;;;;;;;;;;;18.90;99.90;;;;;;4967567;28;19968;-82
2021/03/22 01:21:16;;;;;;;;;;;18.90;99.90;;;;;;4967729;28;19958;-83
2021/03/22 01:23:43;;;;;;;;;;;18.90;99.90;;;;;;4967493;28;19935;-82
2021/03/22 01:26:10;;;;;;;;;;;18.90;99.90;;;;;;4971572;28;19929;-83
2021/03/22 01:28:38;;;;;;;;;;;18.90;99.90;;;;;;4947410;28;19977;-83
2021/03/22 01:31:06;;;;;;;;;;;19.00;99.90;;;;;;4973015;28;20312;-84
2021/03/22 01:33:39;;;;;;;;;;;19.00;99.90;;;;;;4968007;28;19950;-84
2021/03/22 01:36:25;;;;;;;;;;;18.90;99.90;;;;;;4970402;28;19941;-84
2021/03/22 01:38:53;;;;;;;;;;;18.90;99.90;;;;;;4971696;28;19980;-84
2021/03/22 01:41:20;;;;;;;;;;;18.90;99.90;;;;;;4983988;28;19906;-83
2021/03/22 01:43:56;;;;;;;;;;;19.00;99.90;;;;;;4987486;28;19898;-83
2021/03/22 01:46:23;;;;;;;;;;;19.00;99.90;;;;;;4961834;28;19917;-82
2021/03/22 01:48:50;;;;;;;;;;;19.00;99.90;;;;;;4962314;28;20363;-82
2021/03/22 01:51:17;;;;;;;;;;;19.00;99.90;;;;;;4972866;28;19964;-82
2021/03/22 01:53:44;;;;;;;;;;;18.90;99.90;;;;;;4952159;28;20328;-82
2021/03/22 01:56:22;;;;;;;;;;;18.80;99.90;;;;;;4970483;28;20040;-81
2021/03/22 01:58:49;;;;;;;;;;;18.90;99.90;;;;;;4970274;28;19949;-82
2021/03/22 02:01:17;;;;;;;;;;;18.80;99.90;;;;;;4970838;28;19961;-82
2021/03/22 02:03:44;;;;;;;;;;;18.70;99.90;;;;;;4969741;28;20341;-83
2021/03/22 02:06:11;;;;;;;;;;;18.70;99.90;;;;;;4971255;28;19922;-83
2021/03/22 02:08:40;;;;;;;;;;;18.60;99.90;;;;;;4953716;28;19915;-82
2021/03/22 02:11:15;;;;;;;;;;;18.60;99.90;;;;;;4970828;28;19914;-83
2021/03/22 02:13:42;;;;;;;;;;;18.60;99.90;;;;;;4971233;28;19961;-83
2021/03/22 02:16:12;;;;;;;;;;;18.60;99.90;;;;;;4974106;28;19922;-82
2021/03/22 02:18:41;;;;;;;;;;;18.60;99.90;;;;;;4975706;28;19948;-80
2021/03/22 02:21:26;;;;;;;;;;;18.60;99.90;;;;;;4976090;28;19927;-83
2021/03/22 02:23:56;;;;;;;;;;;18.60;99.90;;;;;;4975895;28;19910;-84
2021/03/22 02:26:25;;;;;;;;;;;18.50;99.90;;;;;;4971679;28;19925;-82
2021/03/22 02:28:52;;;;;;;;;;;18.50;99.90;;;;;;4971610;28;19945;-82
2021/03/22 02:31:32;;;;;;;;;;;18.70;99.90;;;;;;4968752;28;19914;-83
2021/03/22 02:34:07;;;;;;;;;;;18.70;99.90;;;;;;4936170;29;19917;-83
2021/03/22 02:36:43;;;;;;;;;;;18.80;99.90;;;;;;4968964;28;19914;-84
2021/03/22 02:39:10;;;;;;;;;;;18.80;99.90;;;;;;4952558;29;20464;-80
2021/03/22 02:41:48;;;;;;;;;;;18.80;99.90;;;;;;4967616;28;19914;-82
2021/03/22 02:44:14;;;;;;;;;;;18.80;99.90;;;;;;4972074;28;19914;-82
2021/03/22 02:46:41;;;;;;;;;;;18.40;99.90;;;;;;4973500;28;20027;-81
2021/03/22 02:49:10;;;;;;;;;;;18.30;99.90;;;;;;4962933;28;19973;-81
2021/03/22 02:51:55;;;;;;;;;;;18.10;99.90;;;;;;4974636;28;20388;-84
2021/03/22 02:54:25;;;;;;;;;;;18.10;99.90;;;;;;4973617;28;19949;-83
2021/03/22 02:56:57;;;;;;;;;;;18.10;99.90;;;;;;4975901;28;19917;-84
2021/03/22 02:59:29;;;;;;;;;;;18.20;99.90;;;;;;4973726;28;19914;-83
2021/03/22 03:02:01;;;;;;;;;;;18.30;99.90;;;;;;4975200;28;19953;-85
2021/03/22 03:04:29;;;;;;;;;;;18.30;99.90;;;;;;4974152;28;19929;-84
2021/03/22 03:07:20;;;;;;;;;;;18.40;99.90;;;;;;4974459;28;19967;-83
2021/03/22 03:09:47;;;;;;;;;;;18.50;99.90;;;;;;4952915;28;19915;-85
2021/03/22 03:12:17;;;;;;;;;;;18.60;99.90;;;;;;4974079;28;20636;-83
2021/03/22 03:14:45;;;;;;;;;;;18.70;99.90;;;;;;4952263;28;19914;-82
2021/03/22 03:17:11;;;;;;;;;;;18.70;99.90;;;;;;4975091;28;20009;-86
2021/03/22 03:19:38;;;;;;;;;;;18.80;99.90;;;;;;4974327;28;20012;-84
2021/03/22 03:22:05;;;;;;;;;;;18.70;99.90;;;;;;4973360;28;19915;-85
2021/03/22 03:24:32;;;;;;;;;;;18.80;99.90;;;;;;4974905;28;20057;-86
2021/03/22 03:26:59;;;;;;;;;;;18.80;99.90;;;;;;4975598;28;19918;-86
2021/03/22 03:29:26;;;;;;;;;;;18.70;99.90;;;;;;4975783;28;19914;-84
2021/03/22 03:31:52;;;;;;;;;;;18.70;99.90;;;;;;4976209;28;19914;-83
2021/03/22 03:34:23;;;;;;;;;;;18.70;99.90;;;;;;4982799;28;19914;-83
2021/03/22 03:36:49;;;;;;;;;;;18.80;99.90;;;;;;4983167;28;19929;-84
2021/03/22 03:39:16;;;;;;;;;;;18.80;99.90;;;;;;4974989;28;19972;-84
2021/03/22 03:41:43;;;;;;;;;;;18.80;99.90;;;;;;4974093;28;19947;-84
2021/03/22 03:44:12;;;;;;;;;;;18.80;99.90;;;;;;4955586;28;19918;-84
2021/03/22 03:46:39;;;;;;;;;;;18.80;99.90;;;;;;4972426;28;20272;-86
2021/03/22 03:49:07;;;;;;;;;;;18.70;99.90;;;;;;4973827;28;19914;-82
2021/03/22 03:51:35;;;;;;;;;;;18.70;99.90;;;;;;4957257;28;19961;-85
2021/03/22 03:54:01;;;;;;;;;;;18.70;99.90;;;;;;4973697;28;19918;-81
2021/03/22 03:56:28;;;;;;;;;;;18.70;99.90;;;;;;4974455;28;19961;-86
2021/03/22 03:58:55;;;;;;;;;;;18.70;99.90;;;;;;4973796;28;19992;-83
2021/03/22 04:01:22;;;;;;;;;;;18.60;99.90;;;;;;4973595;28;19926;-82
2021/03/22 04:03:49;;;;;;;;;;;18.60;99.90;;;;;;4972659;28;19944;-81
2021/03/22 04:06:27;;;;;;;;;;;18.60;99.90;;;;;;4972720;28;19930;-82
2021/03/22 04:08:55;;;;;;;;;;;18.60;99.90;;;;;;4973039;28;19922;-83
2021/03/22 04:11:26;;;;;;;;;;;18.50;99.90;;;;;;4973442;28;20013;-82
2021/03/22 04:13:53;;;;;;;;;;;18.50;99.90;;;;;;4974173;28;20288;-82
2021/03/22 04:16:21;;;;;;;;;;;18.50;99.90;;;;;;4954819;28;20391;-83
2021/03/22 04:18:50;;;;;;;;;;;18.50;99.90;;;;;;4973345;28;19922;-84
2021/03/22 04:21:24;;;;;;;;;;;18.50;99.90;;;;;;4973677;28;20008;-82
2021/03/22 04:23:51;;;;;;;;;;;18.40;99.90;;;;;;4970554;28;19925;-82
2021/03/22 04:26:18;;;;;;;;;;;18.50;99.90;;;;;;4974119;28;20008;-84
2021/03/22 04:28:45;;;;;;;;;;;18.50;99.90;;;;;;4957001;28;19977;-84
2021/03/22 04:31:13;;;;;;;;;;;18.50;99.90;;;;;;4972688;28;20406;-83
2021/03/22 04:33:40;;;;;;;;;;;18.50;99.90;;;;;;4972482;28;19914;-83
2021/03/22 04:36:07;;;;;;;;;;;18.40;99.90;;;;;;4974909;28;19918;-82
2021/03/22 04:38:34;;;;;;;;;;;18.40;99.90;;;;;;4976925;28;19920;-81
2021/03/22 04:41:00;;;;;;;;;;;18.40;99.90;;;;;;4979459;28;19914;-83
2021/03/22 04:43:31;;;;;;;;;;;18.30;99.90;;;;;;4978336;28;19914;-82
2021/03/22 04:46:01;;;;;;;;;;;18.40;99.90;;;;;;4976683;28;19922;-83
2021/03/22 04:48:27;;;;;;;;;;;18.40;99.90;;;;;;4957568;28;20254;-83
2021/03/22 04:50:54;;;;;;;;;;;18.40;99.90;;;;;;4972797;28;20407;-82
2021/03/22 04:53:21;;;;;;;;;;;18.40;99.90;;;;;;4973641;28;19933;-83
2021/03/22 04:55:48;;;;;;;;;;;18.40;99.90;;;;;;4972622;28;20357;-82
2021/03/22 04:58:14;;;;;;;;;;;18.40;99.90;;;;;;4972946;28;20229;-82
2021/03/22 05:00:44;;;;;;;;;;;18.30;99.90;;;;;;4973410;28;20055;-83
2021/03/22 05:03:12;;;;;;;;;;;18.30;99.90;;;;;;4972392;28;20005;-83
2021/03/22 05:05:39;;;;;;;;;;;18.30;99.90;;;;;;4973237;28;19932;-82
2021/03/22 05:08:07;;;;;;;;;;;18.20;99.90;;;;;;4971336;28;19946;-83
2021/03/22 05:10:36;;;;;;;;;;;18.30;99.90;;;;;;4955018;28;19914;-83
2021/03/22 05:13:03;;;;;;;;;;;18.20;99.90;;;;;;4956244;28;19917;-83
2021/03/22 05:15:30;;;;;;;;;;;18.30;99.90;;;;;;4973113;28;19918;-83
2021/03/22 05:17:57;;;;;;;;;;;18.30;99.90;;;;;;4973503;28;19949;-83
2021/03/22 05:20:24;;;;;;;;;;;18.30;99.90;;;;;;4973886;28;19914;-83
2021/03/22 05:22:59;;;;;;;;;;;18.30;99.90;;;;;;4973523;28;19910;-84
2021/03/22 05:25:26;;;;;;;;;;;18.30;99.90;;;;;;4983170;28;19941;-82
2021/03/22 05:31:07;;;;;;;;;;;18.30;99.90;;;;;;4980882;28;19936;-83
2021/03/22 05:33:56;;;;;;;;;;;18.30;99.90;;;;;;4973085;28;19910;-83
2021/03/22 05:36:23;;;;;;;;;;;18.30;99.90;;;;;;4970695;28;20007;-83
2021/03/22 05:38:50;;;;;;;;;;;18.40;99.90;;;;;;4970941;28;19922;-83
2021/03/22 05:41:24;;;;;;;;;;;18.30;99.90;;;;;;4970224;28;19927;-83
2021/03/22 05:43:55;;;;;;;;;;;18.30;99.90;;;;;;4967457;28;19914;-84
2021/03/22 05:46:40;;;;;;;;;;;18.30;99.90;;;;;;4965875;28;20546;-83
2021/03/22 05:49:25;;;;;;;;;;;18.30;99.90;;;;;;4973303;28;19933;-83
2021/03/22 05:52:10;;;;;;;;;;;18.10;99.90;;;;;;4970873;28;19920;-82
2021/03/22 05:54:54;;;;;;;;;;;18.10;99.90;;;;;;4972632;28;19910;-83
2021/03/22 05:57:27;;;;;;;;;;;18.10;99.90;;;;;;4954472;28;19922;-85
2021/03/22 05:59:54;;;;;;;;;;;18.10;99.90;;;;;;4973039;28;19958;-85
2021/03/22 06:02:30;;;;;;;;;;;18.00;99.90;;;;;;4971375;28;19922;-86
2021/03/22 06:05:08;;;;;;;;;;;18.10;99.90;;;;;;4971944;28;19922;-87
2021/03/22 06:07:38;;;;;;;;;;;18.00;99.90;;;;;;4972935;28;20347;-85
2021/03/22 06:10:25;;;;;;;;;;;18.00;99.90;;;;;;4972104;28;19929;-85
2021/03/22 06:12:58;;;;;;;;;;;17.90;99.90;;;;;;4970866;28;20364;-83
2021/03/22 06:15:29;;;;;;;;;;;17.90;99.90;;;;;;4953024;28;19932;-81
2021/03/22 06:17:56;;;;;;;;;;;17.90;99.90;;;;;;4971589;28;19969;-84
2021/03/22 06:20:33;;;;;;;;;;;17.90;99.90;;;;;;4972797;28;19923;-83
2021/03/22 06:23:15;;;;;;;;;;;17.90;99.90;;;;;;4976371;28;20284;-87
2021/03/22 06:25:41;;;;;;;;;;;17.90;99.90;;;;;;4976379;28;19969;-85
2021/03/22 06:28:14;;;;;;;;;;;17.90;99.90;;;;;;4975797;28;19914;-83
2021/03/22 06:30:50;;;;;;;;;;;17.80;99.90;;;;;;4976876;28;19918;-86
2021/03/22 06:33:23;;;;;;;;;;;17.80;99.90;;;;;;4957497;28;20538;-87
2021/03/22 06:35:50;;;;;;;;;;;17.90;99.90;;;;;;4976711;28;19914;-87
2021/03/22 06:38:17;;;;;;;;;;;17.80;99.90;;;;;;4976010;28;19914;-87
2021/03/22 06:40:43;;;;;;;;;;;17.90;99.90;;;;;;4974952;28;19918;-86
2021/03/22 06:43:12;;;;;;;;;;;17.90;99.90;;;;;;4974230;28;19944;-88
2021/03/22 06:45:53;;;;;;;;;;;17.80;99.90;;;;;;4973233;28;20083;-85
2021/03/22 06:48:25;;;;;;;;;;;17.90;99.90;;;;;;4957609;28;20292;-86
2021/03/22 06:50:53;;;;;;;;;;;17.80;99.90;;;;;;4976137;28;20284;-86
2021/03/22 06:53:40;;;;;;;;;;;17.90;99.90;;;;;;4978326;28;19914;-90
2021/03/22 06:56:10;;;;;;;;;;;17.90;99.90;;;;;;4959430;28;19914;-83
2021/03/22 06:58:36;;;;;;;;;;;17.90;99.90;;;;;;4986271;28;19933;-85
2021/03/22 07:01:32;;;;;;;;;;;17.90;99.90;;;;;;4983745;28;19914;-85
2021/03/22 07:04:17;;;;;;;;;;;17.90;99.90;;;;;;4970147;28;19926;-89
2021/03/22 07:06:44;;;;;;;;;;;18.00;99.90;;;;;;4984468;28;20036;-86
2021/03/22 07:09:29;;;;;;;;;;;18.00;99.90;;;;;;4959758;28;19914;-85
2021/03/22 07:11:56;;;;;;;;;;;18.00;99.90;;;;;;4955437;28;19918;-84
2021/03/22 07:14:24;;;;;;;;;;;17.90;99.90;;;;;;4956903;28;20704;-85
2021/03/22 07:17:03;;;;;;;;;;;18.00;99.90;;;;;;4973871;28;19922;-87
2021/03/22 07:19:30;;;;;;;;;;;18.00;99.90;;;;;;4987792;28;19914;-84
2021/03/22 07:22:04;;;;;;;;;;;18.00;99.90;;;;;;4993077;28;19918;-84
2021/03/22 07:24:49;;;;;;;;;;;18.10;99.90;;;;;;4975389;28;19961;-86
2021/03/22 07:27:18;;;;;;;;;;;18.10;99.90;;;;;;4956382;28;19914;-86
2021/03/22 07:29:48;;;;;;;;;;;18.10;99.90;;;;;;4973855;28;19914;-84
2021/03/22 07:32:32;;;;;;;;;;;18.10;99.90;;;;;;4973033;28;20008;-86
2021/03/22 07:35:17;;;;;;;;;;;18.10;99.90;;;;;;4972670;28;19926;-84
2021/03/22 07:37:43;;;;;;;;;;;18.10;99.90;;;;;;4954238;28;20299;-84
2021/03/22 07:40:33;;;;;;;;;;;18.00;99.90;;;;;;4969802;28;19930;-83
2021/03/22 07:43:13;;;;;;;;;;;18.10;99.90;;;;;;4970587;28;19918;-84
2021/03/22 07:45:48;;;;;;;;;;;18.10;99.90;;;;;;4971543;28;19929;-84
2021/03/22 07:48:15;;;;;;;;;;;18.00;99.90;;;;;;4971025;28;19922;-84
2021/03/22 07:50:43;;;;;;;;;;;18.00;99.90;;;;;;4972699;28;19922;-83
2021/03/22 07:53:28;;;;;;;;;;;18.10;99.90;;;;;;4960115;28;19911;-84
2021/03/22 07:55:56;;;;;;;;;;;18.00;99.90;;;;;;4966762;28;19914;-85
2021/03/22 07:58:51;;;;;;;;;;;18.00;99.90;;;;;;4972627;28;19914;-85
2021/03/22 08:01:34;;;;;;;;;;;18.00;99.90;;;;;;4955974;28;19964;-84
2021/03/22 08:04:01;;;;;;;;;;;18.00;99.90;;;;;;4974601;28;20368;-83
2021/03/22 08:06:37;;;;;;;;;;;18.00;99.90;;;;;;4975599;28;20017;-83
2021/03/22 08:09:29;;;;;;;;;;;18.00;99.90;;;;;;4974694;28;19910;-83
2021/03/22 08:12:07;;;;;;;;;;;18.00;99.90;;;;;;4974291;28;19941;-84
2021/03/22 08:14:38;;;;;;;;;;;18.00;99.90;;;;;;4974535;28;19917;-86
2021/03/22 08:17:22;;;;;;;;;;;18.00;99.90;;;;;;4975003;28;19914;-84
2021/03/22 08:20:10;;;;;;;;;;;17.90;99.90;;;;;;4973891;28;19910;-86
2021/03/22 08:22:43;;;;;;;;;;;17.90;99.90;;;;;;4962021;28;20328;-83
2021/03/22 08:25:28;;;;;;;;;;;18.00;99.90;;;;;;4975289;28;19929;-83
2021/03/22 08:28:13;;;;;;;;;;;17.90;99.90;;;;;;4975262;28;19917;-83
2021/03/22 08:30:45;;;;;;;;;;;18.00;99.90;;;;;;4969998;28;19921;-85
2021/03/22 08:33:20;;;;;;;;;;;18.00;99.90;;;;;;4974377;28;20005;-84
2021/03/22 08:35:50;;;;;;;;;;;18.00;99.90;;;;;;4956544;28;20385;-85
2021/03/22 08:38:26;;;;;;;;;;;18.00;99.90;;;;;;4974523;28;19921;-83
2021/03/22 08:40:59;;;;;;;;;;;18.00;99.90;;;;;;4975349;28;19914;-84
2021/03/22 08:43:26;;;;;;;;;;;18.00;99.90;;;;;;4974195;28;20021;-83
2021/03/22 08:46:10;;;;;;;;;;;18.00;99.90;;;;;;4974721;28;19919;-85
2021/03/22 08:48:37;;;;;;;;;;;18.00;99.90;;;;;;4972382;28;19911;-83
2021/03/22 08:51:05;;;;;;;;;;;18.00;99.90;;;;;;4975579;28;20384;-82
2021/03/22 08:53:34;;;;;;;;;;;18.00;99.90;;;;;;4956918;28;19917;-83
2021/03/22 08:56:04;;;;;;;;;;;17.90;99.90;;;;;;4956756;28;19969;-82
2021/03/22 08:58:45;;;;;;;;;;;17.90;99.90;;;;;;4975397;28;19922;-80
2021/03/22 09:01:19;;;;;;;;;;;17.80;99.90;;;;;;4972759;28;19918;-82
2021/03/22 09:03:51;;;;;;;;;;;17.90;99.90;;;;;;4969253;28;19938;-82
2021/03/22 09:06:24;;;;;;;;;;;17.90;99.90;;;;;;4968153;28;20255;-84
2021/03/22 09:08:52;;;;;;;;;;;17.90;99.90;;;;;;4954505;28;20137;-83
2021/03/22 09:11:38;;;;;;;;;;;17.80;99.90;;;;;;4976719;28;19898;-82
2021/03/22 09:14:19;;;;;;;;;;;17.80;99.90;;;;;;4983343;28;19914;-84
2021/03/22 09:16:48;;;;;;;;;;;17.70;99.90;;;;;;4960771;28;19915;-87
2021/03/22 09:19:22;;;;;;;;;;;17.80;99.90;;;;;;4973166;28;20393;-83
2021/03/22 09:22:12;;;;;;;;;;;17.80;99.90;;;;;;4973188;28;19945;-83
2021/03/22 09:24:39;;;;;;;;;;;17.80;99.90;;;;;;4976332;28;19972;-85
2021/03/22 09:27:15;;;;;;;;;;;17.70;99.90;;;;;;4983566;28;19918;-86
2021/03/22 09:29:47;;;;;;;;;;;17.70;99.90;;;;;;4972708;28;19914;-86
2021/03/22 09:32:27;;;;;;;;;;;17.70;99.90;;;;;;4972512;28;19914;-87
2021/03/22 09:35:01;;;;;;;;;;;17.80;99.90;;;;;;4955257;28;20376;-84
2021/03/22 09:37:55;;;;;;;;;;;17.70;99.90;;;;;;4972128;28;20369;-85
2021/03/22 09:40:22;;;;;;;;;;;17.80;99.90;;;;;;4971508;28;20005;-86
2021/03/22 09:43:11;;;;;;;;;;;17.70;99.90;;;;;;4971809;28;19910;-84
2021/03/22 09:45:53;;;;;;;;;;;17.70;99.90;;;;;;4953356;28;20399;-86
2021/03/22 09:48:28;;;;;;;;;;;17.80;99.90;;;;;;4971675;28;19968;-87
2021/03/22 09:51:04;;;;;;;;;;;17.80;99.90;;;;;;4972116;28;19916;-85
2021/03/22 09:53:50;;;;;;;;;;;17.80;99.90;;;;;;4948176;28;19930;-85
2021/03/22 09:56:36;;;;;;;;;;;17.70;99.90;;;;;;4952972;28;19910;-90
2021/03/22 09:59:20;;;;;;;;;;;17.80;99.90;;;;;;4953587;29;20273;-87
2021/03/22 10:01:47;;;;;;;;;;;17.80;99.90;;;;;;4972064;28;19945;-87
2021/03/22 10:04:15;;;;;;;;;;;17.90;99.90;;;;;;4971705;28;19922;-82
2021/03/22 10:06:42;;;;;;;;;;;17.80;99.90;;;;;;4970688;28;19972;-81
2021/03/22 10:09:30;;;;;;;;;;;17.80;99.90;;;;;;4973074;28;19914;-82
2021/03/22 10:12:00;;;;;;;;;;;17.80;99.90;;;;;;4972067;28;19993;-80
2021/03/22 10:14:33;;;;;;;;;;;17.80;99.90;;;;;;4971271;28;19924;-82
2021/03/22 10:17:01;;;;;;;;;;;17.80;99.90;;;;;;4972065;28;19918;-82
2021/03/22 10:19:29;;;;;;;;;;;17.80;99.90;;;;;;4971872;28;19922;-83
2021/03/22 10:22:02;;;;;;;;;;;17.90;99.90;;;;;;4964689;28;19914;-83
2021/03/22 10:24:51;;;;;;;;;;;17.90;99.90;;;;;;4971381;28;19914;-91
2021/03/22 10:27:27;;;;;;;;;;;17.90;99.90;;;;;;4935731;28;19926;-82
2021/03/22 10:30:09;;;;;;;;;;;17.90;99.90;;;;;;4971111;28;19961;-86
2021/03/22 10:32:36;;;;;;;;;;;17.90;99.90;;;;;;4968733;28;19998;-83
2021/03/22 10:35:09;;;;;;;;;;;17.90;99.90;;;;;;4971483;28;19922;-84
2021/03/22 10:37:44;;;;;;;;;;;17.90;99.90;;;;;;4971603;28;19960;-83
2021/03/22 10:40:37;;;;;;;;;;;17.90;99.90;;;;;;4970063;28;20021;-80
2021/03/22 10:43:04;;;;;;;;;;;17.90;99.90;;;;;;4971399;28;20391;-83
2021/03/22 10:45:33;;;;;;;;;;;17.90;99.90;;;;;;4971601;28;19929;-82
2021/03/22 10:48:01;;;;;;;;;;;17.90;99.90;;;;;;4972219;28;19918;-79
2021/03/22 10:50:32;;;;;;;;;;;18.00;99.90;;;;;;4971742;28;19969;-81
2021/03/22 10:53:12;;;;;;;;;;;17.90;99.90;;;;;;4972020;28;19954;-82
2021/03/22 10:55:47;;;;;;;;;;;17.90;99.90;;;;;;4953465;29;19922;-82
2021/03/22 10:58:33;;;;;;;;;;;17.80;99.90;;;;;;4962837;28;19921;-81
2021/03/22 11:01:01;;;;;;;;;;;17.90;99.90;;;;;;4972917;28;19933;-81
2021/03/22 11:03:28;;;;;;;;;;;17.90;99.90;;;;;;4979077;28;19930;-81
2021/03/22 11:05:55;;;;;;;;;;;17.90;99.90;;;;;;4978399;28;19933;-80
2021/03/22 11:08:28;;;;;;;;;;;17.90;99.90;;;;;;4973005;28;20444;-81
2021/03/22 11:11:05;;;;;;;;;;;17.90;99.90;;;;;;4973421;28;20000;-81
2021/03/22 11:13:35;;;;;;;;;;;17.80;99.90;;;;;;4975298;28;19917;-81
2021/03/22 11:16:04;;;;;;;;;;;17.80;99.90;;;;;;4975637;28;20013;-81
2021/03/22 11:18:31;;;;;;;;;;;17.90;99.90;;;;;;4976191;28;19910;-82
2021/03/22 11:20:58;;;;;;;;;;;17.80;99.90;;;;;;4974386;28;19918;-81
2021/03/22 11:23:31;;;;;;;;;;;17.90;99.90;;;;;;4957244;28;19930;-81
2021/03/22 11:25:59;;;;;;;;;;;17.90;99.90;;;;;;4974180;28;19922;-83
2021/03/22 11:28:27;;;;;;;;;;;17.90;99.90;;;;;;4974092;28;19918;-82
2021/03/22 11:30:54;;;;;;;;;;;17.90;99.90;;;;;;4974510;28;19933;-79
2021/03/22 11:33:27;;;;;;;;;;;17.90;99.90;;;;;;4974495;28;20190;-80
2021/03/22 11:36:09;;;;;;;;;;;17.90;99.90;;;;;;4974220;28;19910;-82
2021/03/22 11:38:37;;;;;;;;;;;17.80;99.90;;;;;;4974682;28;20415;-80
2021/03/22 11:41:04;;;;;;;;;;;17.80;99.90;;;;;;4974399;28;19960;-80
2021/03/22 11:43:35;;;;;;;;;;;17.80;99.90;;;;;;4974222;28;19922;-81
2021/03/22 11:46:15;;;;;;;;;;;17.80;99.90;;;;;;4976115;28;19918;-81
2021/03/22 11:48:42;;;;;;;;;;;17.80;99.90;;;;;;4978263;28;19914;-80
2021/03/22 11:51:13;;;;;;;;;;;17.80;99.90;;;;;;4979349;28;19970;-81
2021/03/22 11:54:00;;;;;;;;;;;17.80;99.90;;;;;;4979520;28;19914;-81
2021/03/22 11:56:30;;;;;;;;;;;17.80;99.90;;;;;;4978431;28;19961;-78
2021/03/22 11:59:29;;;;;;;;;;;17.70;99.90;;;;;;4976369;28;19910;-81
2021/03/22 12:02:19;;;;;;;;;;;17.70;99.90;;;;;;4941700;28;19918;-81
2021/03/22 12:04:53;;;;;;;;;;;17.70;99.90;;;;;;4945878;28;19929;-80
2021/03/22 12:07:52;;;;;;;;;;;17.70;99.90;;;;;;4974202;28;19957;-84
2021/03/22 12:10:21;;;;;;;;;;;17.60;99.90;;;;;;4935808;28;19992;-82
2021/03/22 12:12:50;;;;;;;;;;;17.70;99.90;;;;;;4973946;28;20327;-82
2021/03/22 12:15:18;;;;;;;;;;;17.70;99.90;;;;;;4973267;28;20288;-80
2021/03/22 12:17:46;;;;;;;;;;;17.60;99.90;;;;;;4963829;28;19927;-83
2021/03/22 12:20:18;;;;;;;;;;;17.60;99.90;;;;;;4972925;28;19968;-81
2021/03/22 12:22:45;;;;;;;;;;;17.60;99.90;;;;;;4975014;28;19914;-81
2021/03/22 12:25:19;;;;;;;;;;;17.60;99.90;;;;;;4956678;28;19977;-83
2021/03/22 12:27:46;;;;;;;;;;;17.70;99.90;;;;;;4974102;28;19910;-83
2021/03/22 12:30:13;;;;;;;;;;;17.70;99.90;;;;;;4973774;28;19914;-83
2021/03/22 12:32:40;;;;;;;;;;;17.70;99.90;;;;;;4973683;28;19914;-81
2021/03/22 12:35:08;;;;;;;;;;;17.60;99.90;;;;;;4974182;28;19917;-83
2021/03/22 12:37:36;;;;;;;;;;;17.60;99.90;;;;;;4973696;28;19965;-83
2021/03/22 12:40:06;;;;;;;;;;;17.60;99.90;;;;;;4973361;28;19914;-82
2021/03/22 12:42:33;;;;;;;;;;;17.60;99.90;;;;;;4937864;29;20023;-82
2021/03/22 12:45:01;;;;;;;;;;;17.60;99.90;;;;;;4969682;28;20376;-82
2021/03/22 12:47:29;;;;;;;;;;;17.60;99.90;;;;;;4973747;28;19953;-82
2021/03/22 12:49:56;;;;;;;;;;;17.70;99.90;;;;;;4973736;28;19926;-82
2021/03/22 12:52:23;;;;;;;;;;;17.60;99.90;;;;;;4956671;28;19952;-82
2021/03/22 12:54:53;;;;;;;;;;;17.60;99.90;;;;;;4974525;28;19914;-84
2021/03/22 12:57:22;;;;;;;;;;;17.60;99.90;;;;;;4992414;28;20009;-83
2021/03/22 12:59:49;;;;;;;;;;;17.50;99.90;;;;;;4991891;28;19914;-82
2021/03/22 13:02:17;;;;;;;;;;;17.50;99.90;;;;;;4974083;28;19920;-83
2021/03/22 13:04:44;;;;;;;;;;;17.50;99.90;;;;;;4956029;28;20049;-83
2021/03/22 13:07:11;;;;;;;;;;;17.50;99.90;;;;;;4973279;28;20034;-83
2021/03/22 13:09:38;;;;;;;;;;;17.50;99.90;;;;;;4972998;28;20361;-82
2021/03/22 13:12:33;;;;;;;;;;;17.50;99.90;;;;;;4972925;28;19914;-83
2021/03/22 13:15:00;;;;;;;;;;;17.40;99.90;;;;;;4971989;28;19921;-83
2021/03/22 13:17:31;;;;;;;;;;;17.50;99.90;;;;;;4955552;28;19922;-83
2021/03/22 13:19:58;;;;;;;;;;;17.50;99.90;;;;;;4972463;28;19988;-83
2021/03/22 13:22:25;;;;;;;;;;;17.50;99.90;;;;;;4972711;28;19918;-82
2021/03/22 13:24:53;;;;;;;;;;;17.40;99.90;;;;;;4955072;28;20257;-82
2021/03/22 13:27:22;;;;;;;;;;;17.40;99.90;;;;;;4972436;28;20279;-83
2021/03/22 13:29:49;;;;;;;;;;;17.40;99.90;;;;;;4955035;28;19925;-83
2021/03/22 13:32:15;;;;;;;;;;;17.40;99.90;;;;;;4972669;28;19958;-83
2021/03/22 13:34:42;;;;;;;;;;;17.30;99.90;;;;;;4973053;28;19929;-82
2021/03/22 13:37:13;;;;;;;;;;;17.40;99.90;;;;;;4972268;28;19925;-82
2021/03/22 13:39:40;;;;;;;;;;;17.40;99.90;;;;;;4972065;28;20194;-80
2021/03/22 13:42:07;;;;;;;;;;;17.30;99.90;;;;;;4973095;28;19914;-83
2021/03/22 13:44:33;;;;;;;;;;;17.30;99.90;;;;;;4972386;28;20013;-82
2021/03/22 13:47:03;;;;;;;;;;;17.20;99.90;;;;;;4972942;28;19945;-82
2021/03/22 13:49:31;;;;;;;;;;;17.20;99.90;;;;;;4972419;28;20013;-82
2021/03/22 13:51:58;;;;;;;;;;;17.30;99.90;;;;;;4972146;28;19914;-82
2021/03/22 13:54:29;;;;;;;;;;;17.30;99.90;;;;;;4972511;28;20368;-81
2021/03/22 13:56:56;;;;;;;;;;;17.20;99.90;;;;;;4969227;28;19918;-81
2021/03/22 13:59:25;;;;;;;;;;;17.20;99.90;;;;;;4968801;28;19918;-82
2021/03/22 14:01:52;;;;;;;;;;;17.20;99.90;;;;;;4973028;28;19939;-81
2021/03/22 14:04:19;;;;;;;;;;;17.30;99.90;;;;;;4970249;28;19961;-82
2021/03/22 14:06:47;;;;;;;;;;;17.30;99.90;;;;;;4969545;28;19984;-83
2021/03/22 14:09:15;;;;;;;;;;;17.40;99.90;;;;;;4968030;28;19911;-83
2021/03/22 14:11:52;;;;;;;;;;;17.40;99.90;;;;;;4938522;28;20432;-80
2021/03/22 14:14:19;;;;;;;;;;;17.40;99.90;;;;;;4969949;28;19914;-84
2021/03/22 14:16:45;;;;;;;;;;;17.40;99.90;;;;;;4974595;28;19910;-82
2021/03/22 14:19:12;;;;;;;;;;;17.50;99.90;;;;;;4972553;28;19910;-83
2021/03/22 14:21:39;;;;;;;;;;;17.50;99.90;;;;;;4973908;28;20380;-82
2021/03/22 14:24:06;;;;;;;;;;;17.50;99.90;;;;;;4955601;28;19972;-82
2021/03/22 14:26:33;;;;;;;;;;;17.50;99.90;;;;;;4970851;28;20366;-83
2021/03/22 14:29:00;;;;;;;;;;;17.60;99.90;;;;;;4970224;28;19914;-83
2021/03/22 14:31:28;;;;;;;;;;;17.60;99.90;;;;;;4967307;28;20295;-83
2021/03/22 14:33:56;;;;;;;;;;;17.60;99.90;;;;;;4972249;28;19914;-83
2021/03/22 14:36:24;;;;;;;;;;;17.70;99.90;;;;;;4967998;28;19922;-82
2021/03/22 14:38:55;;;;;;;;;;;17.70;99.90;;;;;;4955108;28;19918;-83
2021/03/22 14:41:22;;;;;;;;;;;17.70;99.90;;;;;;4974878;28;19918;-83
2021/03/22 14:43:49;;;;;;;;;;;17.80;99.90;;;;;;4975047;28;21694;-82